Time;durP1;ratioP1;P1;durP2;ratioP2;P2;SDS_P1;SDS_P2;PMS_P1;PMS_P2;Temp;Humidity;BMP_temperature;BMP_pressure;BME280_temperature;BME280_humidity;BME280_pressure;Samples;Min_cycle;Max_cycle;Signal;HPM_P1;HPM_P2
2021/03/15 00:01:12;;;;;;;8.55;4.28;;;;;;;;;;4992950;28;20518;-42
2021/03/15 00:03:38;;;;;;;6.43;3.83;;;;;;;;;;4992791;28;20081;-45
2021/03/15 00:06:05;;;;;;;5.95;3.70;;;;;;;;;;4992905;28;20734;-42
2021/03/15 00:08:31;;;;;;;6.60;3.30;;;;;;;;;;4992707;28;20473;-42
2021/03/15 00:10:57;;;;;;;6.57;3.90;;;;;;;;;;4992377;28;20109;-42
2021/03/15 00:13:23;;;;;;;6.88;3.97;;;;;;;;;;4993051;28;20090;-42
2021/03/15 00:15:50;;;;;;;7.45;3.60;;;;;;;;;;4992464;28;20037;-42
2021/03/15 00:18:17;;;;;;;7.00;4.03;;;;;;;;;;4993698;28;20022;-43
2021/03/15 00:20:44;;;;;;;6.80;3.53;;;;;;;;;;4992416;28;20113;-43
2021/03/15 00:23:10;;;;;;;6.47;3.60;;;;;;;;;;4992105;28;20030;-44
2021/03/15 00:25:36;;;;;;;6.82;3.67;;;;;;;;;;4992382;28;20040;-44
2021/03/15 00:28:02;;;;;;;6.05;3.95;;;;;;;;;;5001136;28;20129;-46
2021/03/15 00:30:28;;;;;;;8.60;3.03;;;;;;;;;;4992480;28;20023;-47
2021/03/15 00:32:54;;;;;;;6.32;3.60;;;;;;;;;;4992408;28;20039;-47
2021/03/15 00:35:20;;;;;;;10.02;3.80;;;;;;;;;;4992642;28;20026;-42
2021/03/15 00:37:46;;;;;;;5.57;3.33;;;;;;;;;;4993471;28;20586;-43
2021/03/15 00:40:14;;;;;;;7.70;4.18;;;;;;;;;;4993260;28;20092;-42
2021/03/15 00:42:41;;;;;;;6.50;3.47;;;;;;;;;;4992784;28;20441;-43
2021/03/15 00:45:08;;;;;;;6.53;3.20;;;;;;;;;;4994967;28;20026;-43
2021/03/15 00:47:34;;;;;;;6.63;3.30;;;;;;;;;;4996858;28;20118;-42
2021/03/15 00:50:00;;;;;;;5.93;3.45;;;;;;;;;;5008998;28;20559;-43
2021/03/15 00:52:26;;;;;;;5.40;3.05;;;;;;;;;;4998470;28;20106;-43
2021/03/15 00:54:52;;;;;;;6.20;3.20;;;;;;;;;;4983482;28;20085;-43
2021/03/15 00:57:18;;;;;;;6.70;3.47;;;;;;;;;;4995835;28;20073;-44
2021/03/15 00:59:44;;;;;;;9.82;3.30;;;;;;;;;;4996984;28;20027;-45
2021/03/15 01:02:11;;;;;;;7.22;3.70;;;;;;;;;;4995292;28;20109;-43
2021/03/15 01:04:37;;;;;;;7.32;3.60;;;;;;;;;;4996043;28;20033;-44
2021/03/15 01:07:04;;;;;;;8.60;3.92;;;;;;;;;;4995538;28;20411;-43
2021/03/15 01:09:29;;;;;;;6.35;3.00;;;;;;;;;;4996906;28;20022;-43
2021/03/15 01:11:55;;;;;;;4.85;2.97;;;;;;;;;;4995513;28;20394;-44
2021/03/15 01:14:21;;;;;;;7.82;3.47;;;;;;;;;;4995618;28;20026;-43
2021/03/15 01:16:47;;;;;;;6.50;3.35;;;;;;;;;;4996811;28;20037;-42
2021/03/15 01:19:13;;;;;;;7.50;3.45;;;;;;;;;;4997195;28;20067;-43
2021/03/15 01:21:39;;;;;;;6.05;3.60;;;;;;;;;;4995697;28;20031;-43
2021/03/15 01:24:06;;;;;;;5.40;3.28;;;;;;;;;;4995481;28;20113;-42
2021/03/15 01:26:32;;;;;;;6.03;3.50;;;;;;;;;;4995648;28;20069;-43
2021/03/15 01:28:59;;;;;;;7.15;3.50;;;;;;;;;;4996368;28;20030;-43
2021/03/15 01:31:25;;;;;;;5.93;3.28;;;;;;;;;;4995407;28;20023;-46
2021/03/15 01:33:51;;;;;;;7.22;3.97;;;;;;;;;;4995385;28;20038;-45
2021/03/15 01:36:17;;;;;;;7.38;3.90;;;;;;;;;;4995299;28;20030;-44
2021/03/15 01:38:43;;;;;;;6.35;3.47;;;;;;;;;;4996041;28;20058;-46
2021/03/15 01:41:09;;;;;;;9.35;3.50;;;;;;;;;;4995312;28;20385;-44
2021/03/15 01:43:35;;;;;;;6.60;3.88;;;;;;;;;;4995224;28;20057;-43
2021/03/15 01:46:01;;;;;;;5.43;3.92;;;;;;;;;;4995117;28;20034;-43
2021/03/15 01:48:27;;;;;;;5.63;3.50;;;;;;;;;;4994749;28;20041;-42
2021/03/15 01:50:54;;;;;;;7.38;3.08;;;;;;;;;;4999667;28;20070;-43
2021/03/15 01:53:21;;;;;;;6.93;3.70;;;;;;;;;;4994664;28;20061;-44
2021/03/15 01:55:47;;;;;;;5.35;3.58;;;;;;;;;;4993971;28;20026;-42
2021/03/15 01:58:14;;;;;;;5.85;3.55;;;;;;;;;;4994652;28;20450;-42
2021/03/15 02:00:40;;;;;;;7.50;3.80;;;;;;;;;;4995985;28;20030;-43
2021/03/15 02:03:07;;;;;;;9.95;3.80;;;;;;;;;;4998822;28;20029;-42
2021/03/15 02:05:34;;;;;;;8.52;4.32;;;;;;;;;;4999500;28;20031;-46
2021/03/15 02:08:00;;;;;;;8.55;4.40;;;;;;;;;;4994459;28;20151;-42
2021/03/15 02:10:26;;;;;;;9.80;4.05;;;;;;;;;;4998726;28;20029;-43
2021/03/15 02:12:58;;;;;;;8.82;4.32;;;;;;;;;;4994792;28;20045;-43
2021/03/15 02:15:29;;;;;;;7.03;3.72;;;;;;;;;;4994624;28;20014;-44
2021/03/15 02:18:16;;;;;;;9.85;3.78;;;;;;;;;;4994598;28;20187;-42
2021/03/15 02:20:54;;;;;;;6.45;3.80;;;;;;;;;;4982766;28;20453;-42
2021/03/15 02:23:31;;;;;;;7.28;3.50;;;;;;;;;;4994308;28;20448;-43
2021/03/15 02:26:09;;;;;;;7.68;4.03;;;;;;;;;;4994662;28;20034;-42
2021/03/15 02:28:47;;;;;;;6.97;3.75;;;;;;;;;;4994081;28;20058;-43
2021/03/15 02:31:26;;;;;;;7.82;3.85;;;;;;;;;;4998973;28;20030;-44
2021/03/15 02:34:01;;;;;;;5.40;3.30;;;;;;;;;;4982951;28;20053;-43
2021/03/15 02:36:31;;;;;;;5.97;3.50;;;;;;;;;;4997890;28;20045;-46
2021/03/15 02:38:57;;;;;;;6.78;3.25;;;;;;;;;;4994125;28;20740;-43
2021/03/15 02:41:24;;;;;;;8.88;3.20;;;;;;;;;;4994937;28;20496;-43
2021/03/15 02:43:58;;;;;;;6.78;3.53;;;;;;;;;;4994139;28;20065;-42
2021/03/15 02:46:27;;;;;;;6.53;3.58;;;;;;;;;;4993901;28;20050;-42
2021/03/15 02:48:55;;;;;;;7.38;3.67;;;;;;;;;;4993941;28;20113;-43
2021/03/15 02:51:23;;;;;;;5.65;3.83;;;;;;;;;;4993499;28;20513;-43
2021/03/15 02:53:50;;;;;;;7.68;3.95;;;;;;;;;;4994647;28;20034;-43
2021/03/15 02:56:19;;;;;;;7.32;3.38;;;;;;;;;;4993831;28;20023;-42
2021/03/15 02:58:46;;;;;;;9.52;3.80;;;;;;;;;;4986110;28;20481;-43
2021/03/15 03:01:13;;;;;;;5.20;3.70;;;;;;;;;;4993901;28;20096;-43
2021/03/15 03:03:41;;;;;;;9.00;4.50;;;;;;;;;;5004177;28;20054;-45
2021/03/15 03:06:07;;;;;;;6.70;4.22;;;;;;;;;;5001518;28;20117;-43
2021/03/15 03:08:35;;;;;;;10.13;4.75;;;;;;;;;;4993402;28;20377;-43
2021/03/15 03:11:01;;;;;;;9.52;4.90;;;;;;;;;;4993675;28;20034;-43
2021/03/15 03:13:28;;;;;;;11.25;4.93;;;;;;;;;;4994479;28;20030;-44
2021/03/15 03:15:57;;;;;;;8.30;5.05;;;;;;;;;;4993494;28;20485;-44
2021/03/15 03:18:24;;;;;;;8.18;4.80;;;;;;;;;;4993686;28;20373;-42
2021/03/15 03:20:54;;;;;;;7.63;4.75;;;;;;;;;;4993569;28;20081;-43
2021/03/15 03:23:20;;;;;;;9.90;4.68;;;;;;;;;;4993219;28;20081;-44
2021/03/15 03:25:47;;;;;;;8.80;4.85;;;;;;;;;;4993996;28;20086;-44
2021/03/15 03:28:15;;;;;;;7.15;4.32;;;;;;;;;;4992910;28;20027;-42
2021/03/15 03:30:42;;;;;;;13.65;5.13;;;;;;;;;;4993145;28;20058;-42
2021/03/15 03:33:09;;;;;;;10.73;5.18;;;;;;;;;;4992886;28;20109;-43
2021/03/15 03:35:36;;;;;;;9.50;4.65;;;;;;;;;;4994371;28;20037;-43
2021/03/15 03:38:03;;;;;;;6.82;4.10;;;;;;;;;;4993032;28;20084;-43
2021/03/15 03:40:29;;;;;;;7.15;4.50;;;;;;;;;;4993227;28;20065;-42
2021/03/15 03:42:55;;;;;;;8.48;4.07;;;;;;;;;;4992776;28;20169;-43
2021/03/15 03:45:22;;;;;;;7.90;4.68;;;;;;;;;;5000004;28;20124;-43
2021/03/15 03:47:48;;;;;;;9.65;4.80;;;;;;;;;;4997608;28;20037;-44
2021/03/15 03:50:16;;;;;;;8.65;5.28;;;;;;;;;;4992641;28;20178;-45
2021/03/15 03:52:46;;;;;;;9.13;4.95;;;;;;;;;;4993013;28;20022;-43
2021/03/15 03:55:15;;;;;;;8.55;4.53;;;;;;;;;;4993939;28;20084;-42
2021/03/15 03:57:42;;;;;;;7.63;5.15;;;;;;;;;;4993167;28;20034;-42
2021/03/15 04:00:11;;;;;;;11.32;5.78;;;;;;;;;;4994109;28;20076;-43
2021/03/15 04:02:44;;;;;;;9.90;5.35;;;;;;;;;;4992962;28;20366;-43
2021/03/15 04:05:14;;;;;;;8.00;5.28;;;;;;;;;;4992972;28;20373;-43
2021/03/15 04:07:44;;;;;;;7.90;5.35;;;;;;;;;;4994556;28;20177;-43
2021/03/15 04:10:10;;;;;;;12.73;5.32;;;;;;;;;;4993199;28;20027;-42
2021/03/15 04:12:37;;;;;;;8.65;5.10;;;;;;;;;;4992937;28;20022;-42
2021/03/15 04:15:04;;;;;;;14.55;5.13;;;;;;;;;;5002881;28;20411;-43
2021/03/15 04:17:35;;;;;;;9.57;5.70;;;;;;;;;;4993542;28;20033;-43
2021/03/15 04:20:02;;;;;;;12.07;5.13;;;;;;;;;;4995197;28;20546;-42
2021/03/15 04:22:29;;;;;;;13.70;5.82;;;;;;;;;;4996889;28;20041;-43
2021/03/15 04:25:00;;;;;;;11.38;4.97;;;;;;;;;;4997778;28;20030;-42
2021/03/15 04:27:27;;;;;;;12.15;4.80;;;;;;;;;;4997912;28;20466;-43
2021/03/15 04:29:53;;;;;;;11.57;5.85;;;;;;;;;;4996737;28;20050;-43
2021/03/15 04:32:19;;;;;;;14.73;5.85;;;;;;;;;;4996505;28;20454;-43
2021/03/15 04:34:45;;;;;;;8.65;5.15;;;;;;;;;;5002203;28;20746;-44
2021/03/15 04:37:12;;;;;;;11.88;6.00;;;;;;;;;;4996484;28;20065;-43
2021/03/15 04:39:38;;;;;;;8.02;5.40;;;;;;;;;;4996159;28;20038;-43
2021/03/15 04:42:05;;;;;;;11.00;5.32;;;;;;;;;;4996256;28;20019;-43
2021/03/15 04:44:32;;;;;;;16.30;5.70;;;;;;;;;;4996190;28;20034;-43
2021/03/15 04:46:58;;;;;;;11.93;4.82;;;;;;;;;;4997315;28;20089;-43
2021/03/15 04:49:24;;;;;;;10.95;5.47;;;;;;;;;;4995692;28;20642;-42
2021/03/15 04:51:50;;;;;;;7.68;5.10;;;;;;;;;;4996091;28;20018;-42
2021/03/15 04:54:17;;;;;;;9.48;5.75;;;;;;;;;;4996087;28;20022;-43
2021/03/15 04:56:43;;;;;;;12.60;5.70;;;;;;;;;;5003235;28;20323;-42
2021/03/15 04:59:11;;;;;;;15.32;6.63;;;;;;;;;;5001294;28;20378;-44
2021/03/15 05:01:40;;;;;;;11.13;5.40;;;;;;;;;;4996012;28;20058;-45
2021/03/15 05:04:08;;;;;;;9.85;5.55;;;;;;;;;;4995646;28;20366;-47
2021/03/15 05:06:35;;;;;;;10.55;5.03;;;;;;;;;;4997559;28;20038;-46
2021/03/15 05:09:02;;;;;;;9.85;5.30;;;;;;;;;;4999873;28;20122;-44
2021/03/15 05:11:31;;;;;;;9.68;5.13;;;;;;;;;;4995980;28;20030;-44
2021/03/15 05:14:01;;;;;;;15.68;5.13;;;;;;;;;;4995728;28;20029;-45
2021/03/15 05:16:28;;;;;;;13.43;5.65;;;;;;;;;;4995896;28;20105;-43
2021/03/15 05:18:55;;;;;;;10.85;5.65;;;;;;;;;;5008025;28;20026;-44
2021/03/15 05:21:24;;;;;;;11.45;5.90;;;;;;;;;;4995577;28;20034;-42
2021/03/15 05:23:52;;;;;;;11.13;5.32;;;;;;;;;;4995450;28;20045;-43
2021/03/15 05:26:19;;;;;;;10.88;5.40;;;;;;;;;;4995704;28;20026;-43
2021/03/15 05:28:47;;;;;;;15.75;7.30;;;;;;;;;;4995166;28;20117;-43
2021/03/15 05:31:13;;;;;;;15.52;5.90;;;;;;;;;;4995022;28;20038;-43
2021/03/15 05:33:39;;;;;;;16.15;6.78;;;;;;;;;;4995064;28;20514;-42
2021/03/15 05:36:08;;;;;;;12.93;6.60;;;;;;;;;;4995413;28;20057;-42
2021/03/15 05:38:34;;;;;;;16.38;5.85;;;;;;;;;;4995702;28;20121;-43
2021/03/15 05:41:01;;;;;;;11.23;6.47;;;;;;;;;;4996148;28;20438;-43
2021/03/15 05:43:29;;;;;;;18.55;6.72;;;;;;;;;;4995369;28;20110;-44
2021/03/15 05:46:07;;;;;;;15.43;6.97;;;;;;;;;;5004169;28;20050;-43
2021/03/15 05:49:01;;;;;;;17.08;6.25;;;;;;;;;;4994960;28;20022;-43
2021/03/15 05:51:40;;;;;;;13.20;6.63;;;;;;;;;;4995072;28;20046;-44
2021/03/15 05:54:19;;;;;;;11.13;5.78;;;;;;;;;;5001186;28;20056;-43
2021/03/15 05:56:56;;;;;;;15.05;6.20;;;;;;;;;;5000603;28;20029;-44
2021/03/15 05:59:37;;;;;;;8.60;5.25;;;;;;;;;;5003133;28;20030;-44
2021/03/15 06:02:03;;;;;;;14.80;5.97;;;;;;;;;;5003556;28;20033;-43
2021/03/15 06:04:46;;;;;;;13.90;6.15;;;;;;;;;;4994524;28;20602;-44
2021/03/15 06:07:18;;;;;;;11.70;5.72;;;;;;;;;;4994786;28;20077;-44
2021/03/15 06:09:58;;;;;;;12.75;6.18;;;;;;;;;;4993750;28;20146;-44
2021/03/15 06:12:25;;;;;;;16.35;6.10;;;;;;;;;;5002440;28;20053;-45
2021/03/15 06:14:54;;;;;;;8.73;5.53;;;;;;;;;;4995470;28;20023;-43
2021/03/15 06:17:20;;;;;;;12.68;6.00;;;;;;;;;;4998063;28;20030;-43
2021/03/15 06:19:47;;;;;;;16.50;6.07;;;;;;;;;;4992661;28;20034;-43
2021/03/15 06:22:13;;;;;;;14.23;6.35;;;;;;;;;;5001314;28;20366;-42
2021/03/15 06:24:40;;;;;;;13.82;5.40;;;;;;;;;;4999066;28;20351;-42
2021/03/15 06:27:07;;;;;;;10.73;5.57;;;;;;;;;;4996797;28;20093;-42
2021/03/15 06:29:34;;;;;;;11.07;6.18;;;;;;;;;;4996082;28;20555;-43
2021/03/15 06:32:00;;;;;;;11.05;5.50;;;;;;;;;;5000310;28;20537;-42
2021/03/15 06:34:28;;;;;;;16.75;6.05;;;;;;;;;;5005512;28;20026;-42
2021/03/15 06:36:54;;;;;;;14.80;6.13;;;;;;;;;;4997362;28;20053;-43
2021/03/15 06:39:21;;;;;;;13.18;5.63;;;;;;;;;;5001558;28;20061;-42
2021/03/15 06:41:49;;;;;;;13.90;5.80;;;;;;;;;;4998592;28;20057;-42
2021/03/15 06:44:15;;;;;;;10.55;5.38;;;;;;;;;;4991638;28;20057;-45
2021/03/15 06:46:41;;;;;;;18.88;6.20;;;;;;;;;;4993674;28;20117;-43
2021/03/15 06:49:08;;;;;;;16.15;5.72;;;;;;;;;;4993866;28;20034;-42
2021/03/15 06:51:36;;;;;;;11.32;5.22;;;;;;;;;;4993575;28;20467;-43
2021/03/15 06:54:02;;;;;;;17.33;5.57;;;;;;;;;;4997601;28;20111;-44
2021/03/15 06:56:28;;;;;;;13.57;5.32;;;;;;;;;;4999770;28;20034;-43
2021/03/15 06:58:56;;;;;;;11.18;5.63;;;;;;;;;;4993816;28;20033;-43
2021/03/15 07:01:25;;;;;;;9.10;5.43;;;;;;;;;;4993621;28;20113;-43
2021/03/15 07:03:51;;;;;;;12.95;6.43;;;;;;;;;;4992930;28;20079;-44
2021/03/15 07:06:19;;;;;;;12.60;6.05;;;;;;;;;;4996803;28;20042;-44
2021/03/15 07:08:46;;;;;;;11.50;5.65;;;;;;;;;;4993404;28;20540;-43
2021/03/15 07:11:19;;;;;;;12.38;5.60;;;;;;;;;;4988679;28;20088;-45
2021/03/15 07:13:45;;;;;;;10.20;4.82;;;;;;;;;;4997803;28;20105;-47
2021/03/15 07:16:30;;;;;;;9.60;4.45;;;;;;;;;;4999652;28;20489;-45
2021/03/15 07:19:03;;;;;;;11.25;5.15;;;;;;;;;;4985735;28;20462;-44
2021/03/15 07:21:30;;;;;;;10.73;5.32;;;;;;;;;;4998268;28;20426;-46
2021/03/15 07:23:58;;;;;;;6.85;4.90;;;;;;;;;;4997494;28;20125;-45
2021/03/15 07:26:32;;;;;;;10.25;4.88;;;;;;;;;;4998848;28;20030;-44
2021/03/15 07:28:59;;;;;;;9.25;5.05;;;;;;;;;;5000151;28;20034;-43
2021/03/15 07:31:31;;;;;;;11.02;4.68;;;;;;;;;;5001293;28;20027;-46
2021/03/15 07:33:57;;;;;;;12.75;5.15;;;;;;;;;;5005724;28;20057;-43
2021/03/15 07:36:27;;;;;;;6.75;4.57;;;;;;;;;;4989951;28;20482;-44
2021/03/15 07:38:54;;;;;;;8.38;4.60;;;;;;;;;;4987957;28;20547;-44
2021/03/15 07:41:21;;;;;;;8.90;4.65;;;;;;;;;;4988335;28;20034;-43
2021/03/15 07:43:47;;;;;;;12.95;5.05;;;;;;;;;;4992172;28;20058;-44
2021/03/15 07:46:21;;;;;;;8.07;4.35;;;;;;;;;;4989671;28;20450;-43
2021/03/15 07:48:47;;;;;;;10.30;4.45;;;;;;;;;;4991889;28;20122;-45
2021/03/15 07:51:14;;;;;;;7.00;4.13;;;;;;;;;;4984032;28;20126;-44
2021/03/15 07:53:42;;;;;;;6.88;4.13;;;;;;;;;;4995850;28;20027;-44
2021/03/15 07:56:08;;;;;;;12.93;4.70;;;;;;;;;;4988775;28;20034;-43
2021/03/15 07:58:36;;;;;;;6.80;4.40;;;;;;;;;;4996729;28;20425;-43
2021/03/15 08:01:03;;;;;;;8.00;3.97;;;;;;;;;;4998729;28;20033;-44
2021/03/15 08:03:29;;;;;;;8.32;4.60;;;;;;;;;;5001261;28;20028;-43
2021/03/15 08:05:57;;;;;;;7.95;4.28;;;;;;;;;;4994615;28;20715;-43
2021/03/15 08:08:23;;;;;;;7.65;4.70;;;;;;;;;;4995571;28;20027;-44
2021/03/15 08:10:50;;;;;;;11.80;4.68;;;;;;;;;;4994775;28;20034;-42
2021/03/15 08:13:18;;;;;;;8.80;4.57;;;;;;;;;;4990405;28;20041;-42
2021/03/15 08:15:48;;;;;;;6.95;4.93;;;;;;;;;;4996201;28;20053;-43
2021/03/15 08:18:16;;;;;;;9.25;5.10;;;;;;;;;;4993166;28;20030;-46
2021/03/15 08:20:43;;;;;;;9.45;5.03;;;;;;;;;;4993447;28;20034;-43
2021/03/15 08:23:13;;;;;;;8.05;4.82;;;;;;;;;;4992746;28;20022;-44
2021/03/15 08:25:40;;;;;;;10.82;4.75;;;;;;;;;;4991637;28;20109;-42
2021/03/15 08:28:08;;;;;;;10.52;5.20;;;;;;;;;;4992040;28;20038;-43
2021/03/15 08:30:36;;;;;;;10.32;5.22;;;;;;;;;;4991269;28;20339;-44
2021/03/15 08:33:02;;;;;;;9.13;5.32;;;;;;;;;;4991648;28;20058;-43
2021/03/15 08:35:28;;;;;;;7.60;5.25;;;;;;;;;;4998982;28;20481;-43
2021/03/15 08:37:58;;;;;;;9.68;6.10;;;;;;;;;;5004930;28;20417;-43
2021/03/15 08:40:39;;;;;;;13.10;6.03;;;;;;;;;;4994810;28;20571;-45
2021/03/15 08:43:18;;;;;;;10.82;6.03;;;;;;;;;;4989420;28;20030;-43
2021/03/15 08:46:03;;;;;;;9.77;6.10;;;;;;;;;;5000767;28;20105;-43
2021/03/15 08:48:37;;;;;;;10.65;5.45;;;;;;;;;;4991333;28;20045;-43
2021/03/15 08:51:04;;;;;;;10.57;5.18;;;;;;;;;;4987616;28;20046;-43
2021/03/15 08:53:44;;;;;;;8.15;5.38;;;;;;;;;;4997174;28;20105;-44
2021/03/15 08:56:20;;;;;;;11.45;5.70;;;;;;;;;;4999178;28;20369;-44
2021/03/15 08:58:46;;;;;;;8.18;5.70;;;;;;;;;;4990384;28;20065;-43
2021/03/15 09:01:16;;;;;;;7.60;4.82;;;;;;;;;;4985999;28;20077;-42
2021/03/15 09:03:52;;;;;;;9.75;5.78;;;;;;;;;;4987645;28;20034;-43
2021/03/15 09:06:40;;;;;;;8.77;4.50;;;;;;;;;;5003432;28;20030;-43
2021/03/15 09:09:21;;;;;;;7.25;4.68;;;;;;;;;;4991938;28;20127;-43
2021/03/15 09:11:49;;;;;;;5.78;3.70;;;;;;;;;;4990025;28;20121;-42
2021/03/15 09:14:20;;;;;;;8.60;4.65;;;;;;;;;;4998395;28;20026;-45
2021/03/15 09:16:53;;;;;;;5.30;4.30;;;;;;;;;;4993225;28;20069;-43
2021/03/15 09:19:26;;;;;;;8.73;4.40;;;;;;;;;;4995838;28;20418;-42
2021/03/15 09:22:02;;;;;;;7.30;4.65;;;;;;;;;;4996276;28;20442;-45
2021/03/15 09:24:38;;;;;;;7.72;4.55;;;;;;;;;;4993806;28;20026;-43
2021/03/15 09:27:05;;;;;;;9.80;4.88;;;;;;;;;;4995086;28;20038;-45
2021/03/15 09:29:34;;;;;;;9.02;4.25;;;;;;;;;;4996691;28;20032;-43
2021/03/15 09:32:04;;;;;;;8.18;4.30;;;;;;;;;;5001632;28;20450;-44
2021/03/15 09:34:30;;;;;;;7.43;4.00;;;;;;;;;;4998348;28;20026;-43
2021/03/15 09:36:58;;;;;;;4.35;3.08;;;;;;;;;;5000312;28;20080;-45
2021/03/15 09:39:25;;;;;;;4.60;2.83;;;;;;;;;;4988411;28;20026;-43
2021/03/15 09:41:51;;;;;;;6.60;3.40;;;;;;;;;;4996277;28;20060;-45
2021/03/15 09:44:31;;;;;;;6.25;3.00;;;;;;;;;;5003372;28;20129;-42
2021/03/15 09:46:57;;;;;;;5.55;3.08;;;;;;;;;;4997274;28;20037;-46
2021/03/15 09:49:36;;;;;;;3.72;2.83;;;;;;;;;;4996759;28;20065;-43
2021/03/15 09:52:28;;;;;;;5.88;3.38;;;;;;;;;;4993557;28;20484;-44
2021/03/15 09:54:56;;;;;;;5.20;3.08;;;;;;;;;;4989973;28;20040;-45
2021/03/15 09:57:23;;;;;;;4.85;2.85;;;;;;;;;;4997524;28;20501;-43
2021/03/15 09:59:49;;;;;;;4.43;2.60;;;;;;;;;;5004474;28;20022;-44
2021/03/15 10:02:26;;;;;;;7.32;3.00;;;;;;;;;;4998438;28;20030;-43
2021/03/15 10:04:52;;;;;;;4.82;2.70;;;;;;;;;;4995039;28;20049;-43
2021/03/15 10:07:18;;;;;;;5.55;2.88;;;;;;;;;;5000274;28;20026;-43
2021/03/15 10:09:44;;;;;;;5.40;2.72;;;;;;;;;;4999087;28;20782;-44
2021/03/15 10:12:21;;;;;;;6.25;2.70;;;;;;;;;;4994892;28;20030;-42
2021/03/15 10:14:47;;;;;;;4.78;2.50;;;;;;;;;;5004541;28;20473;-43
2021/03/15 10:17:22;;;;;;;4.25;2.45;;;;;;;;;;4996353;28;20030;-44
2021/03/15 10:19:48;;;;;;;3.85;2.42;;;;;;;;;;4996377;28;20038;-43
2021/03/15 10:22:16;;;;;;;3.10;2.05;;;;;;;;;;4997892;28;20058;-43
2021/03/15 10:24:43;;;;;;;4.47;2.63;;;;;;;;;;5000239;28;20485;-44
2021/03/15 10:27:10;;;;;;;4.07;2.10;;;;;;;;;;5008123;28;20033;-44
2021/03/15 10:29:36;;;;;;;3.45;2.08;;;;;;;;;;4997200;28;20497;-46
2021/03/15 10:32:03;;;;;;;5.43;1.85;;;;;;;;;;4999338;28;20054;-45
2021/03/15 10:34:29;;;;;;;3.35;1.80;;;;;;;;;;4995461;28;20076;-44
2021/03/15 10:36:56;;;;;;;5.40;2.38;;;;;;;;;;5002001;28;20026;-45
2021/03/15 10:39:23;;;;;;;3.70;2.00;;;;;;;;;;4993436;28;20041;-42
2021/03/15 10:41:51;;;;;;;2.33;1.77;;;;;;;;;;5006493;28;20484;-44
2021/03/15 10:44:24;;;;;;;7.75;2.30;;;;;;;;;;4995199;28;20512;-43
2021/03/15 10:46:52;;;;;;;3.28;1.63;;;;;;;;;;4992693;28;20181;-43
2021/03/15 10:52:01;;;;;;;2.20;1.38;;;;;;;;;;5096754;28;20371;-43
2021/03/15 10:54:28;;;;;;;2.67;1.48;;;;;;;;;;5095887;28;20494;-43
2021/03/15 10:57:09;;;;;;;3.38;1.48;;;;;;;;;;5085373;28;20368;-43
2021/03/15 10:59:35;;;;;;;2.22;1.48;;;;;;;;;;5093347;28;20019;-43
2021/03/15 11:02:01;;;;;;;2.00;1.48;;;;;;;;;;5101295;28;20363;-43
2021/03/15 11:04:41;;;;;;;2.67;1.63;;;;;;;;;;5088619;28;20025;-43
2021/03/15 11:07:36;;;;;;;2.47;1.70;;;;;;;;;;5086741;28;20051;-43
2021/03/15 11:10:09;;;;;;;1.52;1.30;;;;;;;;;;5083140;28;20045;-43
2021/03/15 11:12:35;;;;;;;3.20;1.25;;;;;;;;;;5087224;28;20537;-43
2021/03/15 11:15:05;;;;;;;1.70;1.23;;;;;;;;;;5077729;28;20028;-43
2021/03/15 11:17:31;;;;;;;2.40;1.73;;;;;;;;;;5081709;28;20030;-43
2021/03/15 11:19:57;;;;;;;2.20;1.88;;;;;;;;;;5091938;28;20028;-44
2021/03/15 11:22:23;;;;;;;2.25;1.77;;;;;;;;;;5085962;28;20085;-43
2021/03/15 11:24:49;;;;;;;3.20;2.00;;;;;;;;;;5094473;28;20073;-47
2021/03/15 11:27:15;;;;;;;2.40;2.00;;;;;;;;;;5085014;28;20161;-44
2021/03/15 11:29:43;;;;;;;1.60;1.50;;;;;;;;;;5083845;28;20035;-47
2021/03/15 11:32:12;;;;;;;1.63;1.52;;;;;;;;;;5086620;28;20127;-44
2021/03/15 11:34:48;;;;;;;1.65;1.40;;;;;;;;;;5083333;28;20025;-44
2021/03/15 11:37:14;;;;;;;2.45;1.63;;;;;;;;;;5087899;28;20043;-46
2021/03/15 11:39:41;;;;;;;4.45;1.55;;;;;;;;;;5100326;28;20091;-44
2021/03/15 11:42:22;;;;;;;5.50;1.42;;;;;;;;;;5086134;28;20028;-45
2021/03/15 11:44:48;;;;;;;1.70;1.10;;;;;;;;;;5092446;28;20427;-45
2021/03/15 11:47:13;;;;;;;2.35;1.27;;;;;;;;;;5086288;28;20067;-46
2021/03/15 11:49:39;;;;;;;3.22;1.10;;;;;;;;;;5079575;28;20044;-46
2021/03/15 11:52:05;;;;;;;1.67;0.85;;;;;;;;;;5077085;28;20032;-44
2021/03/15 11:54:31;;;;;;;1.42;0.90;;;;;;;;;;5075754;28;20032;-44
2021/03/15 11:56:57;;;;;;;2.08;1.08;;;;;;;;;;5078714;28;20120;-44
2021/03/15 11:59:23;;;;;;;2.25;0.90;;;;;;;;;;5082735;28;20028;-44
2021/03/15 12:01:50;;;;;;;1.55;1.05;;;;;;;;;;5078731;28;20063;-45
2021/03/15 12:04:15;;;;;;;1.58;1.10;;;;;;;;;;5077470;28;20656;-44
2021/03/15 12:06:42;;;;;;;2.08;1.05;;;;;;;;;;5074198;28;20123;-44
2021/03/15 12:09:08;;;;;;;1.52;1.02;;;;;;;;;;5066871;28;20059;-45
2021/03/15 12:11:34;;;;;;;3.25;1.80;;;;;;;;;;5063711;28;20031;-44
2021/03/15 12:14:00;;;;;;;2.33;1.48;;;;;;;;;;5074703;28;20052;-44
2021/03/15 12:16:26;;;;;;;4.38;1.70;;;;;;;;;;5078306;28;20059;-43
2021/03/15 12:18:54;;;;;;;4.18;1.92;;;;;;;;;;5076733;28;20503;-43
2021/03/15 12:21:20;;;;;;;2.97;1.70;;;;;;;;;;5078587;28;20056;-43
2021/03/15 12:23:46;;;;;;;2.90;2.03;;;;;;;;;;5075057;28;20049;-43
2021/03/15 12:26:12;;;;;;;5.38;2.35;;;;;;;;;;5077258;28;20035;-43
2021/03/15 12:28:38;;;;;;;5.95;2.60;;;;;;;;;;5069354;28;20121;-46
2021/03/15 12:31:04;;;;;;;5.30;2.50;;;;;;;;;;5075935;28;20060;-43
2021/03/15 12:33:30;;;;;;;7.45;2.30;;;;;;;;;;5067134;28;20116;-43
2021/03/15 12:35:56;;;;;;;3.00;2.30;;;;;;;;;;5066422;28;20127;-43
2021/03/15 12:38:22;;;;;;;3.15;2.45;;;;;;;;;;5083594;28;20455;-45
2021/03/15 12:40:48;;;;;;;6.57;2.35;;;;;;;;;;5076313;28;20024;-43
2021/03/15 12:43:14;;;;;;;3.65;2.30;;;;;;;;;;5073311;28;20413;-43
2021/03/15 12:45:40;;;;;;;4.60;2.28;;;;;;;;;;5064194;28;20037;-44
2021/03/15 12:48:06;;;;;;;5.40;2.58;;;;;;;;;;5058126;28;20115;-43
2021/03/15 12:50:32;;;;;;;5.18;2.67;;;;;;;;;;5067792;28;20044;-43
2021/03/15 12:52:58;;;;;;;6.10;3.28;;;;;;;;;;5057404;28;20021;-45
2021/03/15 12:55:24;;;;;;;4.85;2.60;;;;;;;;;;5057999;28;20028;-46
2021/03/15 12:57:50;;;;;;;5.93;2.47;;;;;;;;;;5061211;28;20040;-44
2021/03/15 13:00:16;;;;;;;4.10;2.80;;;;;;;;;;5065150;28;20044;-46
2021/03/15 13:02:42;;;;;;;5.82;2.83;;;;;;;;;;5071994;28;20058;-43
2021/03/15 13:05:09;;;;;;;5.32;2.88;;;;;;;;;;5070812;28;20032;-44
2021/03/15 13:07:35;;;;;;;8.45;3.13;;;;;;;;;;5063850;28;20373;-45
2021/03/15 13:10:01;;;;;;;5.95;3.03;;;;;;;;;;5068925;28;20029;-46
2021/03/15 13:12:27;;;;;;;5.28;3.17;;;;;;;;;;5064191;28;20028;-43
2021/03/15 13:14:53;;;;;;;4.45;3.20;;;;;;;;;;5066968;28;20025;-43
2021/03/15 13:17:19;;;;;;;5.85;2.97;;;;;;;;;;5078236;28;20028;-43
2021/03/15 13:19:45;;;;;;;5.53;3.35;;;;;;;;;;5080847;28;20023;-43
2021/03/15 13:22:11;;;;;;;7.00;3.33;;;;;;;;;;5070739;28;20471;-44
2021/03/15 13:24:37;;;;;;;6.13;3.28;;;;;;;;;;5066265;28;20460;-43
2021/03/15 13:27:03;;;;;;;6.95;3.38;;;;;;;;;;5074152;28;20349;-43
2021/03/15 13:29:29;;;;;;;6.90;3.58;;;;;;;;;;5069839;28;20494;-43
2021/03/15 13:31:55;;;;;;;9.40;3.22;;;;;;;;;;5070110;28;20039;-42
2021/03/15 13:34:21;;;;;;;4.55;3.47;;;;;;;;;;5066083;28;20032;-43
2021/03/15 13:36:47;;;;;;;5.60;3.25;;;;;;;;;;5066466;28;20047;-46
2021/03/15 13:39:13;;;;;;;5.63;3.03;;;;;;;;;;5064021;28;20024;-45
2021/03/15 13:41:39;;;;;;;9.27;3.70;;;;;;;;;;5063318;28;20047;-43
2021/03/15 13:44:05;;;;;;;5.18;3.28;;;;;;;;;;5069238;28;20111;-45
2021/03/15 13:46:31;;;;;;;5.85;3.05;;;;;;;;;;5070777;28;20029;-43
2021/03/15 13:48:57;;;;;;;6.53;3.70;;;;;;;;;;5057337;28;20107;-45
2021/03/15 13:51:23;;;;;;;6.53;3.50;;;;;;;;;;5058998;28;20079;-43
2021/03/15 13:53:49;;;;;;;7.50;3.55;;;;;;;;;;5065210;28;20056;-43
2021/03/15 13:56:15;;;;;;;7.00;3.35;;;;;;;;;;5062282;28;20063;-43
2021/03/15 13:58:41;;;;;;;6.13;3.20;;;;;;;;;;5067033;28;20361;-43
2021/03/15 14:01:07;;;;;;;8.40;3.72;;;;;;;;;;5065265;28;20028;-43
2021/03/15 14:03:33;;;;;;;7.72;3.45;;;;;;;;;;5056986;28;20024;-43
2021/03/15 14:05:59;;;;;;;10.27;3.55;;;;;;;;;;5064896;28;20032;-43
2021/03/15 14:08:25;;;;;;;7.00;3.28;;;;;;;;;;5063001;28;20025;-42
2021/03/15 14:10:51;;;;;;;5.35;2.97;;;;;;;;;;5064231;28;20033;-44
2021/03/15 14:13:19;;;;;;;4.18;2.90;;;;;;;;;;5058704;28;20388;-46
2021/03/15 14:15:45;;;;;;;6.10;3.22;;;;;;;;;;5069585;28;20022;-44
2021/03/15 14:18:11;;;;;;;4.95;2.92;;;;;;;;;;5069182;28;20031;-45
2021/03/15 14:20:37;;;;;;;7.97;3.22;;;;;;;;;;5082055;28;20077;-45
2021/03/15 14:23:04;;;;;;;7.60;3.00;;;;;;;;;;5070193;28;20374;-45
2021/03/15 14:25:30;;;;;;;6.38;2.80;;;;;;;;;;5061149;28;20025;-43
2021/03/15 14:27:56;;;;;;;4.95;3.00;;;;;;;;;;5062585;28;20041;-42
2021/03/15 14:30:22;;;;;;;7.55;2.85;;;;;;;;;;5059735;28;20036;-44
2021/03/15 14:32:48;;;;;;;6.07;2.60;;;;;;;;;;5063873;28;20131;-44
2021/03/15 14:35:15;;;;;;;7.47;3.10;;;;;;;;;;5059671;28;20511;-43
2021/03/15 14:37:41;;;;;;;8.18;3.08;;;;;;;;;;5061728;28;20484;-44
2021/03/15 14:40:07;;;;;;;6.82;3.13;;;;;;;;;;5057467;28;20036;-43
2021/03/15 14:42:34;;;;;;;8.38;2.78;;;;;;;;;;5063877;28;20074;-44
2021/03/15 14:45:00;;;;;;;7.63;2.67;;;;;;;;;;5060450;28;20029;-43
2021/03/15 14:47:26;;;;;;;4.22;2.15;;;;;;;;;;5051083;28;20075;-43
2021/03/15 14:49:52;;;;;;;5.63;2.47;;;;;;;;;;5070063;28;20040;-42